sensor_id;sensor_type;location;lat;lon;timestamp;P1;durP1;ratioP1;P2;durP2;ratioP2
75035;SDS011;64247;51.540;5.854;2022-12-18T00:00:23;22.08;;;9.27;;
75035;SDS011;64247;51.540;5.854;2022-12-18T00:02:25;35.63;;;12.05;;
75035;SDS011;64247;51.540;5.854;2022-12-18T00:04:26;33.08;;;13.15;;
75035;SDS011;64247;51.540;5.854;2022-12-18T00:06:28;38.75;;;12.45;;
75035;SDS011;64247;51.540;5.854;2022-12-18T00:08:30;28.83;;;11.23;;
75035;SDS011;64247;51.540;5.854;2022-12-18T00:10:33;41.22;;;13.13;;
75035;SDS011;64247;51.540;5.854;2022-12-18T00:12:34;37.17;;;11.85;;
75035;SDS011;64247;51.540;5.854;2022-12-18T00:14:34;35.65;;;13.52;;
75035;SDS011;64247;51.540;5.854;2022-12-18T00:16:35;26.95;;;10.80;;
75035;SDS011;64247;51.540;5.854;2022-12-18T00:18:37;22.67;;;9.68;;
75035;SDS011;64247;51.540;5.854;2022-12-18T00:20:39;29.77;;;12.82;;
75035;SDS011;64247;51.540;5.854;2022-12-18T00:22:40;36.33;;;13.75;;
75035;SDS011;64247;51.540;5.854;2022-12-18T00:24:41;29.50;;;12.77;;
75035;SDS011;64247;51.540;5.854;2022-12-18T00:26:42;31.95;;;12.85;;
75035;SDS011;64247;51.540;5.854;2022-12-18T00:28:44;31.50;;;12.95;;
75035;SDS011;64247;51.540;5.854;2022-12-18T00:30:45;29.90;;;12.65;;
75035;SDS011;64247;51.540;5.854;2022-12-18T00:32:46;24.25;;;11.38;;
75035;SDS011;64247;51.540;5.854;2022-12-18T00:34:47;26.63;;;11.27;;
75035;SDS011;64247;51.540;5.854;2022-12-18T00:36:49;29.80;;;8.35;;
75035;SDS011;64247;51.540;5.854;2022-12-18T00:38:50;27.52;;;12.60;;
75035;SDS011;64247;51.540;5.854;2022-12-18T00:40:51;36.03;;;12.70;;
75035;SDS011;64247;51.540;5.854;2022-12-18T00:42:52;28.05;;;13.40;;
75035;SDS011;64247;51.540;5.854;2022-12-18T00:44:56;34.03;;;13.90;;
75035;SDS011;64247;51.540;5.854;2022-12-18T00:46:58;34.25;;;11.93;;
75035;SDS011;64247;51.540;5.854;2022-12-18T00:48:59;29.70;;;12.18;;
75035;SDS011;64247;51.540;5.854;2022-12-18T00:51:00;29.58;;;12.25;;
75035;SDS011;64247;51.540;5.854;2022-12-18T00:53:01;28.67;;;13.13;;
75035;SDS011;64247;51.540;5.854;2022-12-18T00:55:02;33.03;;;12.00;;
75035;SDS011;64247;51.540;5.854;2022-12-18T00:57:03;29.77;;;13.07;;
75035;SDS011;64247;51.540;5.854;2022-12-18T00:59:04;36.35;;;11.73;;
75035;SDS011;64247;51.540;5.854;2022-12-18T01:01:06;28.83;;;11.85;;
75035;SDS011;64247;51.540;5.854;2022-12-18T01:03:09;19.10;;;8.82;;
75035;SDS011;64247;51.540;5.854;2022-12-18T01:05:13;15.43;;;7.43;;
75035;SDS011;64247;51.540;5.854;2022-12-18T01:07:15;11.65;;;5.82;;
75035;SDS011;64247;51.540;5.854;2022-12-18T01:09:17;22.35;;;7.45;;
75035;SDS011;64247;51.540;5.854;2022-12-18T01:11:19;23.15;;;10.73;;
75035;SDS011;64247;51.540;5.854;2022-12-18T01:13:22;21.42;;;9.35;;
75035;SDS011;64247;51.540;5.854;2022-12-18T01:15:24;23.33;;;11.27;;
75035;SDS011;64247;51.540;5.854;2022-12-18T01:17:25;9.80;;;5.03;;
75035;SDS011;64247;51.540;5.854;2022-12-18T01:19:27;8.32;;;5.18;;
75035;SDS011;64247;51.540;5.854;2022-12-18T01:21:28;12.85;;;6.50;;
75035;SDS011;64247;51.540;5.854;2022-12-18T01:23:29;15.90;;;7.50;;
75035;SDS011;64247;51.540;5.854;2022-12-18T01:25:30;13.48;;;7.13;;
75035;SDS011;64247;51.540;5.854;2022-12-18T01:27:32;10.88;;;6.20;;
75035;SDS011;64247;51.540;5.854;2022-12-18T01:29:34;14.55;;;8.32;;
75035;SDS011;64247;51.540;5.854;2022-12-18T01:31:35;9.90;;;4.60;;
75035;SDS011;64247;51.540;5.854;2022-12-18T01:33:36;4.45;;;3.38;;
75035;SDS011;64247;51.540;5.854;2022-12-18T01:35:41;25.67;;;9.95;;
75035;SDS011;64247;51.540;5.854;2022-12-18T01:37:43;22.60;;;9.85;;
75035;SDS011;64247;51.540;5.854;2022-12-18T01:39:44;23.88;;;8.35;;
75035;SDS011;64247;51.540;5.854;2022-12-18T01:41:45;16.83;;;7.88;;
75035;SDS011;64247;51.540;5.854;2022-12-18T01:44:46;12.77;;;6.78;;
75035;SDS011;64247;51.540;5.854;2022-12-18T01:47:07;12.07;;;6.18;;
75035;SDS011;64247;51.540;5.854;2022-12-18T01:49:08;18.25;;;8.27;;
75035;SDS011;64247;51.540;5.854;2022-12-18T01:51:09;12.07;;;3.50;;
75035;SDS011;64247;51.540;5.854;2022-12-18T01:53:15;23.13;;;9.35;;
75035;SDS011;64247;51.540;5.854;2022-12-18T01:55:22;8.80;;;4.05;;
75035;SDS011;64247;51.540;5.854;2022-12-18T02:00:04;23.42;;;8.25;;
75035;SDS011;64247;51.540;5.854;2022-12-18T02:02:13;8.45;;;2.95;;
75035;SDS011;64247;51.540;5.854;2022-12-18T02:04:21;20.98;;;6.85;;
75035;SDS011;64247;51.540;5.854;2022-12-18T02:06:27;27.00;;;8.63;;
75035;SDS011;64247;51.540;5.854;2022-12-18T02:11:41;7.32;;;3.80;;
75035;SDS011;64247;51.540;5.854;2022-12-18T02:19:46;16.38;;;5.85;;
75035;SDS011;64247;51.540;5.854;2022-12-18T02:25:40;12.15;;;6.18;;
75035;SDS011;64247;51.540;5.854;2022-12-18T02:28:13;8.20;;;5.15;;
75035;SDS011;64247;51.540;5.854;2022-12-18T02:30:20;16.50;;;6.05;;
75035;SDS011;64247;51.540;5.854;2022-12-18T02:32:25;4.68;;;2.53;;
75035;SDS011;64247;51.540;5.854;2022-12-18T02:34:33;17.83;;;7.60;;
75035;SDS011;64247;51.540;5.854;2022-12-18T02:36:41;9.10;;;5.30;;
75035;SDS011;64247;51.540;5.854;2022-12-18T02:38:45;22.83;;;9.55;;
75035;SDS011;64247;51.540;5.854;2022-12-18T02:40:49;25.48;;;9.93;;
75035;SDS011;64247;51.540;5.854;2022-12-18T02:42:54;23.90;;;8.65;;
75035;SDS011;64247;51.540;5.854;2022-12-18T02:44:55;23.30;;;9.73;;
75035;SDS011;64247;51.540;5.854;2022-12-18T02:46:58;17.35;;;8.48;;
75035;SDS011;64247;51.540;5.854;2022-12-18T02:52:15;21.38;;;8.55;;
75035;SDS011;64247;51.540;5.854;2022-12-18T03:04:05;15.45;;;8.23;;
75035;SDS011;64247;51.540;5.854;2022-12-18T03:06:30;7.35;;;5.00;;
75035;SDS011;64247;51.540;5.854;2022-12-18T03:08:38;19.45;;;8.82;;
75035;SDS011;64247;51.540;5.854;2022-12-18T03:12:56;21.63;;;6.50;;
75035;SDS011;64247;51.540;5.854;2022-12-18T03:15:24;14.55;;;8.13;;
75035;SDS011;64247;51.540;5.854;2022-12-18T03:17:41;12.90;;;7.47;;
75035;SDS011;64247;51.540;5.854;2022-12-18T03:19:53;13.52;;;8.00;;
75035;SDS011;64247;51.540;5.854;2022-12-18T03:22:04;18.35;;;8.57;;
75035;SDS011;64247;51.540;5.854;2022-12-18T03:24:17;10.43;;;4.68;;
75035;SDS011;64247;51.540;5.854;2022-12-18T03:26:22;18.98;;;7.30;;
75035;SDS011;64247;51.540;5.854;2022-12-18T03:28:31;18.15;;;8.20;;
75035;SDS011;64247;51.540;5.854;2022-12-18T03:30:41;15.45;;;7.57;;
75035;SDS011;64247;51.540;5.854;2022-12-18T03:32:50;17.90;;;9.20;;
75035;SDS011;64247;51.540;5.854;2022-12-18T03:35:03;17.67;;;8.50;;
75035;SDS011;64247;51.540;5.854;2022-12-18T03:37:10;15.98;;;7.32;;
75035;SDS011;64247;51.540;5.854;2022-12-18T03:39:11;18.38;;;7.10;;
75035;SDS011;64247;51.540;5.854;2022-12-18T03:46:40;11.88;;;6.43;;
75035;SDS011;64247;51.540;5.854;2022-12-18T03:49:10;17.63;;;6.70;;
75035;SDS011;64247;51.540;5.854;2022-12-18T03:51:29;17.48;;;6.93;;
75035;SDS011;64247;51.540;5.854;2022-12-18T03:54:13;12.32;;;5.75;;
75035;SDS011;64247;51.540;5.854;2022-12-18T03:56:26;11.75;;;5.60;;
75035;SDS011;64247;51.540;5.854;2022-12-18T03:58:34;10.77;;;5.40;;
75035;SDS011;64247;51.540;5.854;2022-12-18T04:01:00;16.35;;;5.65;;
75035;SDS011;64247;51.540;5.854;2022-12-18T04:03:06;3.08;;;2.80;;
75035;SDS011;64247;51.540;5.854;2022-12-18T04:05:15;16.45;;;7.15;;
75035;SDS011;64247;51.540;5.854;2022-12-18T04:07:19;11.32;;;5.00;;
75035;SDS011;64247;51.540;5.854;2022-12-18T04:09:22;17.45;;;5.90;;
75035;SDS011;64247;51.540;5.854;2022-12-18T04:11:24;21.50;;;5.10;;
75035;SDS011;64247;51.540;5.854;2022-12-18T04:13:28;5.93;;;3.88;;
75035;SDS011;64247;51.540;5.854;2022-12-18T04:15:35;7.57;;;3.58;;
75035;SDS011;64247;51.540;5.854;2022-12-18T04:17:43;10.65;;;5.13;;
75035;SDS011;64247;51.540;5.854;2022-12-18T04:19:52;10.45;;;6.40;;
75035;SDS011;64247;51.540;5.854;2022-12-18T04:21:52;13.65;;;6.88;;
75035;SDS011;64247;51.540;5.854;2022-12-18T04:23:54;12.45;;;5.18;;
75035;SDS011;64247;51.540;5.854;2022-12-18T04:25:56;4.10;;;2.28;;
75035;SDS011;64247;51.540;5.854;2022-12-18T04:28:12;3.78;;;3.05;;
75035;SDS011;64247;51.540;5.854;2022-12-18T04:30:13;8.50;;;4.93;;
75035;SDS011;64247;51.540;5.854;2022-12-18T04:32:15;5.47;;;4.03;;
75035;SDS011;64247;51.540;5.854;2022-12-18T04:34:17;9.48;;;3.35;;
75035;SDS011;64247;51.540;5.854;2022-12-18T04:36:23;7.05;;;3.88;;
75035;SDS011;64247;51.540;5.854;2022-12-18T04:38:24;8.57;;;5.38;;
75035;SDS011;64247;51.540;5.854;2022-12-18T04:40:34;2.35;;;1.80;;
75035;SDS011;64247;51.540;5.854;2022-12-18T04:42:41;6.90;;;4.43;;
75035;SDS011;64247;51.540;5.854;2022-12-18T04:44:42;12.02;;;4.05;;
75035;SDS011;64247;51.540;5.854;2022-12-18T04:46:43;12.38;;;5.20;;
75035;SDS011;64247;51.540;5.854;2022-12-18T04:50:47;13.07;;;6.32;;
75035;SDS011;64247;51.540;5.854;2022-12-18T04:54:49;9.25;;;5.05;;
75035;SDS011;64247;51.540;5.854;2022-12-18T04:56:49;13.70;;;4.05;;
75035;SDS011;64247;51.540;5.854;2022-12-18T04:58:50;7.28;;;4.25;;
75035;SDS011;64247;51.540;5.854;2022-12-18T05:00:51;7.22;;;3.65;;
75035;SDS011;64247;51.540;5.854;2022-12-18T05:02:52;12.70;;;5.57;;
75035;SDS011;64247;51.540;5.854;2022-12-18T05:04:53;3.90;;;3.50;;
75035;SDS011;64247;51.540;5.854;2022-12-18T05:06:54;9.57;;;5.18;;
75035;SDS011;64247;51.540;5.854;2022-12-18T05:08:55;10.95;;;5.18;;
75035;SDS011;64247;51.540;5.854;2022-12-18T05:13:24;5.47;;;3.75;;
75035;SDS011;64247;51.540;5.854;2022-12-18T05:15:29;9.65;;;3.00;;
75035;SDS011;64247;51.540;5.854;2022-12-18T05:17:31;12.13;;;4.15;;
75035;SDS011;64247;51.540;5.854;2022-12-18T05:19:32;6.75;;;4.90;;
75035;SDS011;64247;51.540;5.854;2022-12-18T05:21:33;12.30;;;6.15;;
75035;SDS011;64247;51.540;5.854;2022-12-18T05:23:34;14.70;;;6.32;;
75035;SDS011;64247;51.540;5.854;2022-12-18T05:25:36;10.70;;;5.15;;
75035;SDS011;64247;51.540;5.854;2022-12-18T05:27:37;8.10;;;3.92;;
75035;SDS011;64247;51.540;5.854;2022-12-18T05:29:37;9.52;;;4.35;;
75035;SDS011;64247;51.540;5.854;2022-12-18T05:31:38;7.15;;;4.35;;
75035;SDS011;64247;51.540;5.854;2022-12-18T05:33:39;10.82;;;5.18;;
75035;SDS011;64247;51.540;5.854;2022-12-18T05:37:41;5.82;;;3.17;;
75035;SDS011;64247;51.540;5.854;2022-12-18T05:39:42;6.07;;;4.00;;
75035;SDS011;64247;51.540;5.854;2022-12-18T05:41:43;3.35;;;2.45;;
75035;SDS011;64247;51.540;5.854;2022-12-18T05:43:47;12.65;;;3.28;;
75035;SDS011;64247;51.540;5.854;2022-12-18T05:45:48;5.28;;;2.95;;
75035;SDS011;64247;51.540;5.854;2022-12-18T05:47:50;4.25;;;3.60;;
75035;SDS011;64247;51.540;5.854;2022-12-18T05:49:51;8.10;;;3.75;;
75035;SDS011;64247;51.540;5.854;2022-12-18T05:51:51;12.48;;;3.97;;
75035;SDS011;64247;51.540;5.854;2022-12-18T05:53:52;3.00;;;1.88;;
75035;SDS011;64247;51.540;5.854;2022-12-18T05:55:53;6.53;;;3.53;;
75035;SDS011;64247;51.540;5.854;2022-12-18T05:57:54;14.82;;;5.30;;
75035;SDS011;64247;51.540;5.854;2022-12-18T05:59:55;15.73;;;7.07;;
75035;SDS011;64247;51.540;5.854;2022-12-18T06:01:55;7.85;;;3.60;;
75035;SDS011;64247;51.540;5.854;2022-12-18T06:03:56;7.03;;;4.50;;
75035;SDS011;64247;51.540;5.854;2022-12-18T06:05:57;14.25;;;7.25;;
75035;SDS011;64247;51.540;5.854;2022-12-18T06:07:58;12.20;;;6.43;;
75035;SDS011;64247;51.540;5.854;2022-12-18T06:09:59;7.60;;;3.92;;
75035;SDS011;64247;51.540;5.854;2022-12-18T06:11:59;14.70;;;6.22;;
75035;SDS011;64247;51.540;5.854;2022-12-18T06:14:00;7.47;;;3.70;;
75035;SDS011;64247;51.540;5.854;2022-12-18T06:16:04;15.43;;;5.78;;
75035;SDS011;64247;51.540;5.854;2022-12-18T06:18:06;12.18;;;4.07;;
75035;SDS011;64247;51.540;5.854;2022-12-18T06:20:07;7.25;;;4.43;;
75035;SDS011;64247;51.540;5.854;2022-12-18T06:22:08;14.85;;;7.45;;
75035;SDS011;64247;51.540;5.854;2022-12-18T06:24:09;11.38;;;4.72;;
75035;SDS011;64247;51.540;5.854;2022-12-18T06:26:11;12.43;;;6.85;;
75035;SDS011;64247;51.540;5.854;2022-12-18T06:28:13;15.38;;;6.47;;
75035;SDS011;64247;51.540;5.854;2022-12-18T06:30:14;6.65;;;3.78;;
75035;SDS011;64247;51.540;5.854;2022-12-18T06:32:15;19.30;;;8.70;;
75035;SDS011;64247;51.540;5.854;2022-12-18T06:34:16;14.40;;;7.93;;
75035;SDS011;64247;51.540;5.854;2022-12-18T06:36:17;6.53;;;2.08;;
75035;SDS011;64247;51.540;5.854;2022-12-18T06:38:18;19.20;;;9.30;;
75035;SDS011;64247;51.540;5.854;2022-12-18T06:40:19;11.35;;;6.32;;
75035;SDS011;64247;51.540;5.854;2022-12-18T06:42:20;13.57;;;6.78;;
75035;SDS011;64247;51.540;5.854;2022-12-18T06:44:22;13.13;;;7.70;;
75035;SDS011;64247;51.540;5.854;2022-12-18T06:46:23;11.93;;;6.32;;
75035;SDS011;64247;51.540;5.854;2022-12-18T06:48:24;15.10;;;6.63;;
75035;SDS011;64247;51.540;5.854;2022-12-18T06:50:25;18.42;;;7.53;;
75035;SDS011;64247;51.540;5.854;2022-12-18T06:54:27;5.65;;;3.35;;
75035;SDS011;64247;51.540;5.854;2022-12-18T06:56:28;21.73;;;10.15;;
75035;SDS011;64247;51.540;5.854;2022-12-18T06:58:29;6.78;;;3.63;;
75035;SDS011;64247;51.540;5.854;2022-12-18T07:00:30;7.10;;;3.58;;
75035;SDS011;64247;51.540;5.854;2022-12-18T07:02:31;15.77;;;7.95;;
75035;SDS011;64247;51.540;5.854;2022-12-18T07:04:32;14.70;;;6.60;;
75035;SDS011;64247;51.540;5.854;2022-12-18T07:06:33;9.95;;;5.18;;
75035;SDS011;64247;51.540;5.854;2022-12-18T07:08:34;4.15;;;2.90;;
75035;SDS011;64247;51.540;5.854;2022-12-18T07:10:40;9.88;;;4.03;;
75035;SDS011;64247;51.540;5.854;2022-12-18T07:12:42;11.85;;;5.80;;
75035;SDS011;64247;51.540;5.854;2022-12-18T07:14:43;14.77;;;7.60;;
75035;SDS011;64247;51.540;5.854;2022-12-18T07:18:45;7.65;;;4.40;;
75035;SDS011;64247;51.540;5.854;2022-12-18T07:20:47;9.32;;;3.00;;
75035;SDS011;64247;51.540;5.854;2022-12-18T07:22:47;15.15;;;7.70;;
75035;SDS011;64247;51.540;5.854;2022-12-18T07:24:48;6.90;;;5.13;;
75035;SDS011;64247;51.540;5.854;2022-12-18T07:26:49;14.20;;;7.55;;
75035;SDS011;64247;51.540;5.854;2022-12-18T07:28:50;21.25;;;7.85;;
75035;SDS011;64247;51.540;5.854;2022-12-18T07:30:54;11.18;;;4.60;;
75035;SDS011;64247;51.540;5.854;2022-12-18T07:32:55;13.93;;;5.47;;
75035;SDS011;64247;51.540;5.854;2022-12-18T07:34:56;9.43;;;4.97;;
75035;SDS011;64247;51.540;5.854;2022-12-18T07:36:57;12.43;;;5.75;;
75035;SDS011;64247;51.540;5.854;2022-12-18T07:38:58;14.60;;;7.03;;
75035;SDS011;64247;51.540;5.854;2022-12-18T07:41:02;11.75;;;4.65;;
75035;SDS011;64247;51.540;5.854;2022-12-18T07:43:06;12.10;;;5.03;;
75035;SDS011;64247;51.540;5.854;2022-12-18T07:45:07;10.25;;;5.18;;
75035;SDS011;64247;51.540;5.854;2022-12-18T07:47:09;6.85;;;3.55;;
75035;SDS011;64247;51.540;5.854;2022-12-18T07:49:10;5.03;;;3.17;;
75035;SDS011;64247;51.540;5.854;2022-12-18T07:51:10;9.63;;;4.38;;
75035;SDS011;64247;51.540;5.854;2022-12-18T07:53:12;15.77;;;6.72;;
75035;SDS011;64247;51.540;5.854;2022-12-18T07:55:14;13.98;;;6.32;;
75035;SDS011;64247;51.540;5.854;2022-12-18T07:57:16;15.93;;;6.35;;
75035;SDS011;64247;51.540;5.854;2022-12-18T07:59:17;7.07;;;4.43;;
75035;SDS011;64247;51.540;5.854;2022-12-18T08:03:19;10.50;;;3.80;;
75035;SDS011;64247;51.540;5.854;2022-12-18T08:05:20;16.52;;;8.25;;
75035;SDS011;64247;51.540;5.854;2022-12-18T08:07:21;16.00;;;6.88;;
75035;SDS011;64247;51.540;5.854;2022-12-18T08:09:22;6.40;;;3.10;;
75035;SDS011;64247;51.540;5.854;2022-12-18T08:11:24;11.50;;;5.65;;
75035;SDS011;64247;51.540;5.854;2022-12-18T08:13:28;17.30;;;5.15;;
75035;SDS011;64247;51.540;5.854;2022-12-18T08:15:29;12.55;;;5.30;;
75035;SDS011;64247;51.540;5.854;2022-12-18T08:17:30;7.70;;;3.55;;
75035;SDS011;64247;51.540;5.854;2022-12-18T08:19:31;17.08;;;7.00;;
75035;SDS011;64247;51.540;5.854;2022-12-18T08:21:33;12.93;;;5.80;;
75035;SDS011;64247;51.540;5.854;2022-12-18T08:23:34;14.52;;;5.88;;
75035;SDS011;64247;51.540;5.854;2022-12-18T08:25:35;12.50;;;5.63;;
75035;SDS011;64247;51.540;5.854;2022-12-18T08:27:36;14.80;;;6.65;;
75035;SDS011;64247;51.540;5.854;2022-12-18T08:29:37;15.55;;;4.18;;
75035;SDS011;64247;51.540;5.854;2022-12-18T08:31:38;19.67;;;9.65;;
75035;SDS011;64247;51.540;5.854;2022-12-18T08:33:39;13.95;;;5.53;;
75035;SDS011;64247;51.540;5.854;2022-12-18T08:35:41;12.15;;;4.78;;
75035;SDS011;64247;51.540;5.854;2022-12-18T08:37:42;14.35;;;6.72;;
75035;SDS011;64247;51.540;5.854;2022-12-18T08:39:43;14.25;;;5.55;;
75035;SDS011;64247;51.540;5.854;2022-12-18T08:41:44;13.00;;;5.95;;
75035;SDS011;64247;51.540;5.854;2022-12-18T08:44:06;6.65;;;3.95;;
75035;SDS011;64247;51.540;5.854;2022-12-18T08:46:27;8.57;;;4.65;;
75035;SDS011;64247;51.540;5.854;2022-12-18T08:48:35;16.52;;;6.28;;
75035;SDS011;64247;51.540;5.854;2022-12-18T08:50:36;15.35;;;7.80;;
75035;SDS011;64247;51.540;5.854;2022-12-18T08:52:37;10.23;;;5.03;;
75035;SDS011;64247;51.540;5.854;2022-12-18T08:54:38;11.00;;;5.85;;
75035;SDS011;64247;51.540;5.854;2022-12-18T08:56:39;20.08;;;8.35;;
75035;SDS011;64247;51.540;5.854;2022-12-18T08:58:40;13.27;;;7.30;;
75035;SDS011;64247;51.540;5.854;2022-12-18T09:00:42;13.10;;;6.22;;
75035;SDS011;64247;51.540;5.854;2022-12-18T09:02:42;13.95;;;6.53;;
75035;SDS011;64247;51.540;5.854;2022-12-18T09:04:43;11.98;;;5.20;;
75035;SDS011;64247;51.540;5.854;2022-12-18T09:06:48;9.32;;;5.20;;
75035;SDS011;64247;51.540;5.854;2022-12-18T09:08:49;8.38;;;4.43;;
75035;SDS011;64247;51.540;5.854;2022-12-18T09:10:50;7.05;;;4.72;;
75035;SDS011;64247;51.540;5.854;2022-12-18T09:12:52;6.65;;;2.83;;
75035;SDS011;64247;51.540;5.854;2022-12-18T09:14:52;18.15;;;8.27;;
75035;SDS011;64247;51.540;5.854;2022-12-18T09:16:53;15.13;;;6.55;;
75035;SDS011;64247;51.540;5.854;2022-12-18T09:18:55;16.73;;;5.85;;
75035;SDS011;64247;51.540;5.854;2022-12-18T09:20:59;8.50;;;5.07;;
75035;SDS011;64247;51.540;5.854;2022-12-18T09:23:00;14.52;;;5.03;;
75035;SDS011;64247;51.540;5.854;2022-12-18T09:25:01;19.38;;;8.93;;
75035;SDS011;64247;51.540;5.854;2022-12-18T09:27:02;10.60;;;4.25;;
75035;SDS011;64247;51.540;5.854;2022-12-18T09:29:03;12.27;;;5.78;;
75035;SDS011;64247;51.540;5.854;2022-12-18T09:31:06;5.93;;;4.72;;
75035;SDS011;64247;51.540;5.854;2022-12-18T09:33:08;9.75;;;6.03;;
75035;SDS011;64247;51.540;5.854;2022-12-18T09:35:09;13.48;;;6.03;;
75035;SDS011;64247;51.540;5.854;2022-12-18T09:37:10;12.18;;;5.97;;
75035;SDS011;64247;51.540;5.854;2022-12-18T09:39:11;14.27;;;6.30;;
75035;SDS011;64247;51.540;5.854;2022-12-18T09:46:45;14.45;;;6.93;;
75035;SDS011;64247;51.540;5.854;2022-12-18T09:48:55;12.00;;;4.93;;
75035;SDS011;64247;51.540;5.854;2022-12-18T09:51:08;11.00;;;5.10;;
75035;SDS011;64247;51.540;5.854;2022-12-18T09:53:41;11.85;;;6.28;;
75035;SDS011;64247;51.540;5.854;2022-12-18T09:55:50;9.60;;;5.00;;
75035;SDS011;64247;51.540;5.854;2022-12-18T09:58:00;8.48;;;4.97;;
75035;SDS011;64247;51.540;5.854;2022-12-18T10:00:32;2.63;;;2.30;;
75035;SDS011;64247;51.540;5.854;2022-12-18T10:02:33;10.88;;;5.72;;
75035;SDS011;64247;51.540;5.854;2022-12-18T10:04:33;9.40;;;5.53;;
75035;SDS011;64247;51.540;5.854;2022-12-18T10:12:21;15.15;;;6.22;;
75035;SDS011;64247;51.540;5.854;2022-12-18T10:20:43;11.00;;;3.70;;
75035;SDS011;64247;51.540;5.854;2022-12-18T10:28:13;13.48;;;6.85;;
75035;SDS011;64247;51.540;5.854;2022-12-18T10:30:19;14.75;;;7.13;;
75035;SDS011;64247;51.540;5.854;2022-12-18T10:32:24;17.85;;;6.07;;
75035;SDS011;64247;51.540;5.854;2022-12-18T10:34:29;10.55;;;6.07;;
75035;SDS011;64247;51.540;5.854;2022-12-18T10:36:30;13.32;;;5.82;;
75035;SDS011;64247;51.540;5.854;2022-12-18T10:38:31;6.88;;;3.00;;
75035;SDS011;64247;51.540;5.854;2022-12-18T10:40:36;12.02;;;5.55;;
75035;SDS011;64247;51.540;5.854;2022-12-18T10:43:39;12.52;;;6.30;;
75035;SDS011;64247;51.540;5.854;2022-12-18T10:45:41;12.45;;;7.18;;
75035;SDS011;64247;51.540;5.854;2022-12-18T10:47:59;12.48;;;6.82;;
75035;SDS011;64247;51.540;5.854;2022-12-18T10:50:00;11.90;;;5.93;;
75035;SDS011;64247;51.540;5.854;2022-12-18T10:52:17;15.73;;;7.05;;
75035;SDS011;64247;51.540;5.854;2022-12-18T10:54:23;13.70;;;7.88;;
75035;SDS011;64247;51.540;5.854;2022-12-18T10:56:26;11.25;;;5.80;;
75035;SDS011;64247;51.540;5.854;2022-12-18T10:58:32;15.13;;;6.90;;
75035;SDS011;64247;51.540;5.854;2022-12-18T11:00:36;10.18;;;5.00;;
75035;SDS011;64247;51.540;5.854;2022-12-18T11:02:37;11.98;;;5.63;;
75035;SDS011;64247;51.540;5.854;2022-12-18T11:04:50;8.85;;;5.97;;
75035;SDS011;64247;51.540;5.854;2022-12-18T11:07:02;10.13;;;5.65;;
75035;SDS011;64247;51.540;5.854;2022-12-18T11:09:19;10.50;;;4.80;;
75035;SDS011;64247;51.540;5.854;2022-12-18T11:11:27;10.38;;;6.22;;
75035;SDS011;64247;51.540;5.854;2022-12-18T11:13:30;15.18;;;6.10;;
75035;SDS011;64247;51.540;5.854;2022-12-18T11:15:32;11.70;;;6.20;;
75035;SDS011;64247;51.540;5.854;2022-12-18T11:17:34;12.95;;;6.20;;
75035;SDS011;64247;51.540;5.854;2022-12-18T11:19:37;8.85;;;5.72;;
75035;SDS011;64247;51.540;5.854;2022-12-18T11:21:41;11.65;;;5.65;;
75035;SDS011;64247;51.540;5.854;2022-12-18T11:23:52;9.60;;;6.00;;
75035;SDS011;64247;51.540;5.854;2022-12-18T11:25:55;13.30;;;5.63;;
75035;SDS011;64247;51.540;5.854;2022-12-18T11:28:01;11.07;;;6.38;;
75035;SDS011;64247;51.540;5.854;2022-12-18T11:32:37;10.93;;;5.82;;
75035;SDS011;64247;51.540;5.854;2022-12-18T11:34:48;8.15;;;4.28;;
75035;SDS011;64247;51.540;5.854;2022-12-18T11:37:00;9.77;;;5.57;;
75035;SDS011;64247;51.540;5.854;2022-12-18T11:39:12;9.18;;;5.25;;
75035;SDS011;64247;51.540;5.854;2022-12-18T11:41:26;17.88;;;8.32;;
75035;SDS011;64247;51.540;5.854;2022-12-18T11:44:06;3.95;;;2.95;;
75035;SDS011;64247;51.540;5.854;2022-12-18T11:46:15;11.18;;;6.13;;
75035;SDS011;64247;51.540;5.854;2022-12-18T11:48:27;6.85;;;3.63;;
75035;SDS011;64247;51.540;5.854;2022-12-18T11:53:01;11.57;;;6.55;;
75035;SDS011;64247;51.540;5.854;2022-12-18T12:01:00;11.82;;;4.75;;
75035;SDS011;64247;51.540;5.854;2022-12-18T12:12:59;14.00;;;7.13;;
75035;SDS011;64247;51.540;5.854;2022-12-18T12:19:46;7.80;;;5.13;;
75035;SDS011;64247;51.540;5.854;2022-12-18T12:34:01;14.25;;;7.55;;
75035;SDS011;64247;51.540;5.854;2022-12-18T12:39:45;12.90;;;7.50;;
75035;SDS011;64247;51.540;5.854;2022-12-18T12:41:47;15.00;;;7.28;;
75035;SDS011;64247;51.540;5.854;2022-12-18T12:44:08;12.45;;;5.75;;
75035;SDS011;64247;51.540;5.854;2022-12-18T12:46:32;5.25;;;3.85;;
75035;SDS011;64247;51.540;5.854;2022-12-18T12:51:15;12.02;;;5.93;;
75035;SDS011;64247;51.540;5.854;2022-12-18T12:53:26;9.43;;;6.15;;
75035;SDS011;64247;51.540;5.854;2022-12-18T12:55:33;11.63;;;6.00;;
75035;SDS011;64247;51.540;5.854;2022-12-18T12:57:36;20.10;;;10.43;;
75035;SDS011;64247;51.540;5.854;2022-12-18T13:02:23;13.05;;;6.28;;
75035;SDS011;64247;51.540;5.854;2022-12-18T13:04:56;5.15;;;4.38;;
75035;SDS011;64247;51.540;5.854;2022-12-18T13:15:18;14.50;;;7.38;;
75035;SDS011;64247;51.540;5.854;2022-12-18T13:17:45;11.70;;;6.20;;
75035;SDS011;64247;51.540;5.854;2022-12-18T13:20:05;11.77;;;6.97;;
75035;SDS011;64247;51.540;5.854;2022-12-18T13:22:24;12.77;;;6.70;;
75035;SDS011;64247;51.540;5.854;2022-12-18T13:24:36;15.45;;;7.85;;
75035;SDS011;64247;51.540;5.854;2022-12-18T13:26:36;19.05;;;10.90;;
75035;SDS011;64247;51.540;5.854;2022-12-18T13:28:50;9.05;;;5.25;;
75035;SDS011;64247;51.540;5.854;2022-12-18T13:30:55;6.82;;;4.15;;
75035;SDS011;64247;51.540;5.854;2022-12-18T13:35:42;11.82;;;6.57;;
75035;SDS011;64247;51.540;5.854;2022-12-18T13:38:00;12.48;;;6.68;;
75035;SDS011;64247;51.540;5.854;2022-12-18T13:40:01;19.60;;;7.57;;
75035;SDS011;64247;51.540;5.854;2022-12-18T13:45:31;15.15;;;8.05;;
75035;SDS011;64247;51.540;5.854;2022-12-18T13:47:41;14.55;;;7.68;;
75035;SDS011;64247;51.540;5.854;2022-12-18T13:49:44;11.98;;;5.20;;
75035;SDS011;64247;51.540;5.854;2022-12-18T13:51:48;12.43;;;7.80;;
75035;SDS011;64247;51.540;5.854;2022-12-18T13:53:53;16.67;;;8.88;;
75035;SDS011;64247;51.540;5.854;2022-12-18T13:56:03;10.85;;;5.63;;
75035;SDS011;64247;51.540;5.854;2022-12-18T13:58:05;14.85;;;5.63;;
75035;SDS011;64247;51.540;5.854;2022-12-18T14:00:26;6.85;;;4.85;;
75035;SDS011;64247;51.540;5.854;2022-12-18T14:02:29;14.60;;;7.32;;
75035;SDS011;64247;51.540;5.854;2022-12-18T14:06:34;13.38;;;7.70;;
75035;SDS011;64247;51.540;5.854;2022-12-18T14:08:39;15.20;;;7.53;;
75035;SDS011;64247;51.540;5.854;2022-12-18T14:10:46;15.23;;;8.00;;
75035;SDS011;64247;51.540;5.854;2022-12-18T14:12:51;16.42;;;6.85;;
75035;SDS011;64247;51.540;5.854;2022-12-18T14:14:57;7.93;;;4.80;;
75035;SDS011;64247;51.540;5.854;2022-12-18T14:16:59;15.52;;;6.78;;
75035;SDS011;64247;51.540;5.854;2022-12-18T14:19:01;17.58;;;7.28;;
75035;SDS011;64247;51.540;5.854;2022-12-18T14:21:03;12.90;;;4.80;;
75035;SDS011;64247;51.540;5.854;2022-12-18T14:23:23;10.85;;;5.60;;
75035;SDS011;64247;51.540;5.854;2022-12-18T14:25:45;7.70;;;5.78;;
75035;SDS011;64247;51.540;5.854;2022-12-18T14:27:51;13.90;;;7.28;;
75035;SDS011;64247;51.540;5.854;2022-12-18T14:32:43;12.60;;;7.25;;
75035;SDS011;64247;51.540;5.854;2022-12-18T14:36:52;14.05;;;8.05;;
75035;SDS011;64247;51.540;5.854;2022-12-18T14:38:58;13.18;;;7.72;;
75035;SDS011;64247;51.540;5.854;2022-12-18T14:41:06;11.00;;;5.50;;
75035;SDS011;64247;51.540;5.854;2022-12-18T14:43:13;14.98;;;7.28;;
75035;SDS011;64247;51.540;5.854;2022-12-18T14:47:43;11.20;;;5.82;;